sensor_id;sensor_type;location;lat;lon;timestamp;temperature;humidity
15013;DHT22;7603;49.432;11.418;2023-08-06T00:00:06;14.30;99.90
15013;DHT22;7603;49.432;11.418;2023-08-06T00:02:32;14.20;99.90
15013;DHT22;7603;49.432;11.418;2023-08-06T00:04:57;14.20;99.90
15013;DHT22;7603;49.432;11.418;2023-08-06T00:07:23;14.30;99.90
15013;DHT22;7603;49.432;11.418;2023-08-06T00:09:48;14.20;99.90
15013;DHT22;7603;49.432;11.418;2023-08-06T00:12:14;14.20;99.90
15013;DHT22;7603;49.432;11.418;2023-08-06T00:14:40;14.10;99.90
15013;DHT22;7603;49.432;11.418;2023-08-06T00:17:05;14.00;99.90
15013;DHT22;7603;49.432;11.418;2023-08-06T00:19:32;14.00;99.90
15013;DHT22;7603;49.432;11.418;2023-08-06T00:21:57;14.00;99.90
15013;DHT22;7603;49.432;11.418;2023-08-06T00:24:23;14.00;99.90
15013;DHT22;7603;49.432;11.418;2023-08-06T00:26:49;14.00;99.90
15013;DHT22;7603;49.432;11.418;2023-08-06T00:29:15;14.00;99.90
15013;DHT22;7603;49.432;11.418;2023-08-06T00:31:40;14.00;99.90
15013;DHT22;7603;49.432;11.418;2023-08-06T00:34:06;14.00;99.90
15013;DHT22;7603;49.432;11.418;2023-08-06T00:36:32;13.90;99.90
15013;DHT22;7603;49.432;11.418;2023-08-06T00:38:57;13.90;99.90
15013;DHT22;7603;49.432;11.418;2023-08-06T00:41:23;13.80;99.90
15013;DHT22;7603;49.432;11.418;2023-08-06T00:43:48;13.80;99.90
15013;DHT22;7603;49.432;11.418;2023-08-06T00:46:14;13.70;99.90
15013;DHT22;7603;49.432;11.418;2023-08-06T00:48:41;13.70;99.90
15013;DHT22;7603;49.432;11.418;2023-08-06T00:51:08;13.70;99.90
15013;DHT22;7603;49.432;11.418;2023-08-06T00:53:34;13.60;99.90
15013;DHT22;7603;49.432;11.418;2023-08-06T00:56:00;13.60;99.90
15013;DHT22;7603;49.432;11.418;2023-08-06T00:58:26;13.60;99.90
15013;DHT22;7603;49.432;11.418;2023-08-06T01:00:52;13.50;99.90
15013;DHT22;7603;49.432;11.418;2023-08-06T01:03:18;13.50;99.90
15013;DHT22;7603;49.432;11.418;2023-08-06T01:05:43;13.60;99.90
15013;DHT22;7603;49.432;11.418;2023-08-06T01:08:15;13.60;99.90
15013;DHT22;7603;49.432;11.418;2023-08-06T01:13:42;13.60;99.90
15013;DHT22;7603;49.432;11.418;2023-08-06T01:16:14;13.60;99.90
15013;DHT22;7603;49.432;11.418;2023-08-06T01:18:40;13.60;99.90
15013;DHT22;7603;49.432;11.418;2023-08-06T01:21:07;13.60;99.90
15013;DHT22;7603;49.432;11.418;2023-08-06T01:23:32;13.60;99.90
15013;DHT22;7603;49.432;11.418;2023-08-06T01:26:21;13.60;99.90
15013;DHT22;7603;49.432;11.418;2023-08-06T01:31:33;13.50;99.90
15013;DHT22;7603;49.432;11.418;2023-08-06T01:34:01;13.60;99.90
15013;DHT22;7603;49.432;11.418;2023-08-06T01:36:28;13.60;99.90
15013;DHT22;7603;49.432;11.418;2023-08-06T01:38:54;13.50;99.90
15013;DHT22;7603;49.432;11.418;2023-08-06T01:41:20;13.50;99.90
15013;DHT22;7603;49.432;11.418;2023-08-06T01:43:45;13.60;99.90
15013;DHT22;7603;49.432;11.418;2023-08-06T01:46:11;13.50;99.90
15013;DHT22;7603;49.432;11.418;2023-08-06T01:48:36;13.50;99.90
15013;DHT22;7603;49.432;11.418;2023-08-06T01:51:05;13.50;99.90
15013;DHT22;7603;49.432;11.418;2023-08-06T01:53:31;13.50;99.90
15013;DHT22;7603;49.432;11.418;2023-08-06T01:55:57;13.60;99.90
15013;DHT22;7603;49.432;11.418;2023-08-06T01:58:23;13.50;99.90
15013;DHT22;7603;49.432;11.418;2023-08-06T02:00:48;13.50;99.90
15013;DHT22;7603;49.432;11.418;2023-08-06T02:03:14;13.50;99.90
15013;DHT22;7603;49.432;11.418;2023-08-06T02:05:40;13.50;99.90
15013;DHT22;7603;49.432;11.418;2023-08-06T02:08:06;13.40;99.90
15013;DHT22;7603;49.432;11.418;2023-08-06T02:10:31;13.50;99.90
15013;DHT22;7603;49.432;11.418;2023-08-06T02:12:57;13.50;99.90
15013;DHT22;7603;49.432;11.418;2023-08-06T02:15:23;13.50;99.90
15013;DHT22;7603;49.432;11.418;2023-08-06T02:17:48;13.50;99.90
15013;DHT22;7603;49.432;11.418;2023-08-06T02:20:14;13.50;99.90
15013;DHT22;7603;49.432;11.418;2023-08-06T02:22:39;13.50;99.90
15013;DHT22;7603;49.432;11.418;2023-08-06T02:25:05;13.50;99.90
15013;DHT22;7603;49.432;11.418;2023-08-06T02:27:31;13.50;99.90
15013;DHT22;7603;49.432;11.418;2023-08-06T02:29:56;13.40;99.90
15013;DHT22;7603;49.432;11.418;2023-08-06T02:32:22;13.40;99.90
15013;DHT22;7603;49.432;11.418;2023-08-06T02:34:47;13.40;99.90
15013;DHT22;7603;49.432;11.418;2023-08-06T02:37:13;13.40;99.90
15013;DHT22;7603;49.432;11.418;2023-08-06T02:39:38;13.30;99.90
15013;DHT22;7603;49.432;11.418;2023-08-06T02:42:08;13.40;99.90
15013;DHT22;7603;49.432;11.418;2023-08-06T02:44:34;13.40;99.90
15013;DHT22;7603;49.432;11.418;2023-08-06T02:47:00;13.40;99.90
15013;DHT22;7603;49.432;11.418;2023-08-06T02:49:26;13.40;99.90
15013;DHT22;7603;49.432;11.418;2023-08-06T02:51:52;13.40;99.90
15013;DHT22;7603;49.432;11.418;2023-08-06T02:54:20;13.40;99.90
15013;DHT22;7603;49.432;11.418;2023-08-06T02:56:46;13.50;99.90
15013;DHT22;7603;49.432;11.418;2023-08-06T02:59:12;13.50;99.90
15013;DHT22;7603;49.432;11.418;2023-08-06T03:01:38;13.40;99.90
15013;DHT22;7603;49.432;11.418;2023-08-06T03:04:04;13.40;99.90
15013;DHT22;7603;49.432;11.418;2023-08-06T03:06:30;13.50;99.90
15013;DHT22;7603;49.432;11.418;2023-08-06T03:08:55;13.50;99.90
15013;DHT22;7603;49.432;11.418;2023-08-06T03:11:21;13.40;99.90
15013;DHT22;7603;49.432;11.418;2023-08-06T03:13:47;13.40;99.90
15013;DHT22;7603;49.432;11.418;2023-08-06T03:16:13;13.40;99.90
15013;DHT22;7603;49.432;11.418;2023-08-06T03:18:39;13.40;99.90
15013;DHT22;7603;49.432;11.418;2023-08-06T03:21:05;13.30;99.90
15013;DHT22;7603;49.432;11.418;2023-08-06T03:23:30;13.30;99.90
15013;DHT22;7603;49.432;11.418;2023-08-06T03:25:56;13.30;99.90
15013;DHT22;7603;49.432;11.418;2023-08-06T03:28:26;13.30;99.90
15013;DHT22;7603;49.432;11.418;2023-08-06T03:31:02;13.40;99.90
15013;DHT22;7603;49.432;11.418;2023-08-06T03:33:28;13.40;99.90
15013;DHT22;7603;49.432;11.418;2023-08-06T03:35:54;13.30;99.90
15013;DHT22;7603;49.432;11.418;2023-08-06T03:38:19;13.40;99.90
15013;DHT22;7603;49.432;11.418;2023-08-06T03:40:46;13.40;99.90
15013;DHT22;7603;49.432;11.418;2023-08-06T03:43:11;13.40;99.90
15013;DHT22;7603;49.432;11.418;2023-08-06T03:45:37;13.40;99.90
15013;DHT22;7603;49.432;11.418;2023-08-06T03:48:03;13.40;99.90
15013;DHT22;7603;49.432;11.418;2023-08-06T03:50:28;13.40;99.90
15013;DHT22;7603;49.432;11.418;2023-08-06T03:52:54;13.40;99.90
15013;DHT22;7603;49.432;11.418;2023-08-06T03:55:19;13.40;99.90
15013;DHT22;7603;49.432;11.418;2023-08-06T03:57:45;13.40;99.90
15013;DHT22;7603;49.432;11.418;2023-08-06T04:00:11;13.40;99.90
15013;DHT22;7603;49.432;11.418;2023-08-06T04:02:37;13.40;99.90
15013;DHT22;7603;49.432;11.418;2023-08-06T04:05:03;13.30;99.90
15013;DHT22;7603;49.432;11.418;2023-08-06T04:07:29;13.30;99.90
15013;DHT22;7603;49.432;11.418;2023-08-06T04:09:57;13.30;99.90
15013;DHT22;7603;49.432;11.418;2023-08-06T04:12:23;13.30;99.90
15013;DHT22;7603;49.432;11.418;2023-08-06T04:14:50;13.30;99.90
15013;DHT22;7603;49.432;11.418;2023-08-06T04:17:17;13.30;99.90
15013;DHT22;7603;49.432;11.418;2023-08-06T04:19:52;13.30;99.90
15013;DHT22;7603;49.432;11.418;2023-08-06T04:22:18;13.30;99.90
15013;DHT22;7603;49.432;11.418;2023-08-06T04:24:44;13.20;99.90
15013;DHT22;7603;49.432;11.418;2023-08-06T04:27:11;13.30;99.90
15013;DHT22;7603;49.432;11.418;2023-08-06T04:29:37;13.30;99.90
15013;DHT22;7603;49.432;11.418;2023-08-06T04:32:07;13.40;99.90
15013;DHT22;7603;49.432;11.418;2023-08-06T04:34:33;13.30;99.90
15013;DHT22;7603;49.432;11.418;2023-08-06T04:37:00;13.30;99.90
15013;DHT22;7603;49.432;11.418;2023-08-06T04:39:26;13.20;99.90
15013;DHT22;7603;49.432;11.418;2023-08-06T04:41:51;13.10;99.90
15013;DHT22;7603;49.432;11.418;2023-08-06T04:44:17;13.10;99.90
15013;DHT22;7603;49.432;11.418;2023-08-06T04:46:42;13.00;99.90
15013;DHT22;7603;49.432;11.418;2023-08-06T04:49:08;13.00;99.90
15013;DHT22;7603;49.432;11.418;2023-08-06T04:51:33;13.00;99.90
15013;DHT22;7603;49.432;11.418;2023-08-06T04:53:59;12.90;99.90
15013;DHT22;7603;49.432;11.418;2023-08-06T04:56:25;12.90;99.90
15013;DHT22;7603;49.432;11.418;2023-08-06T04:58:50;12.80;99.90
15013;DHT22;7603;49.432;11.418;2023-08-06T05:01:16;12.80;99.90
15013;DHT22;7603;49.432;11.418;2023-08-06T05:03:42;12.80;99.90
15013;DHT22;7603;49.432;11.418;2023-08-06T05:06:07;12.90;99.90
15013;DHT22;7603;49.432;11.418;2023-08-06T05:08:33;12.90;99.90
15013;DHT22;7603;49.432;11.418;2023-08-06T05:10:59;12.80;99.90
15013;DHT22;7603;49.432;11.418;2023-08-06T05:13:24;12.90;99.90
15013;DHT22;7603;49.432;11.418;2023-08-06T05:15:50;12.90;99.90
15013;DHT22;7603;49.432;11.418;2023-08-06T05:18:16;12.90;99.90
15013;DHT22;7603;49.432;11.418;2023-08-06T05:20:42;12.80;99.90
15013;DHT22;7603;49.432;11.418;2023-08-06T05:23:08;12.90;99.90
15013;DHT22;7603;49.432;11.418;2023-08-06T05:25:35;12.90;99.90
15013;DHT22;7603;49.432;11.418;2023-08-06T05:28:01;12.90;99.90
15013;DHT22;7603;49.432;11.418;2023-08-06T05:30:27;13.00;99.90
15013;DHT22;7603;49.432;11.418;2023-08-06T05:32:53;13.00;99.90
15013;DHT22;7603;49.432;11.418;2023-08-06T05:35:18;13.10;99.90
15013;DHT22;7603;49.432;11.418;2023-08-06T05:37:44;13.10;99.90
15013;DHT22;7603;49.432;11.418;2023-08-06T05:40:09;13.50;99.90
15013;DHT22;7603;49.432;11.418;2023-08-06T05:42:35;13.50;99.90
15013;DHT22;7603;49.432;11.418;2023-08-06T05:45:01;13.60;99.90
15013;DHT22;7603;49.432;11.418;2023-08-06T05:47:26;13.70;99.90
15013;DHT22;7603;49.432;11.418;2023-08-06T05:49:52;13.80;99.90
15013;DHT22;7603;49.432;11.418;2023-08-06T05:52:17;13.90;99.90
15013;DHT22;7603;49.432;11.418;2023-08-06T05:54:43;14.00;99.90
15013;DHT22;7603;49.432;11.418;2023-08-06T05:57:08;13.90;99.90
15013;DHT22;7603;49.432;11.418;2023-08-06T05:59:34;13.90;99.90
15013;DHT22;7603;49.432;11.418;2023-08-06T06:01:59;13.90;99.90
15013;DHT22;7603;49.432;11.418;2023-08-06T06:04:25;14.00;99.90
15013;DHT22;7603;49.432;11.418;2023-08-06T06:06:51;14.10;99.90
15013;DHT22;7603;49.432;11.418;2023-08-06T06:09:16;14.20;99.90
15013;DHT22;7603;49.432;11.418;2023-08-06T06:11:42;14.30;99.90
15013;DHT22;7603;49.432;11.418;2023-08-06T06:14:08;14.40;99.90
15013;DHT22;7603;49.432;11.418;2023-08-06T06:16:34;14.60;99.90
15013;DHT22;7603;49.432;11.418;2023-08-06T06:19:00;14.80;99.90
15013;DHT22;7603;49.432;11.418;2023-08-06T06:21:25;14.80;99.90
15013;DHT22;7603;49.432;11.418;2023-08-06T06:23:51;14.90;99.90
15013;DHT22;7603;49.432;11.418;2023-08-06T06:26:20;14.90;99.90
15013;DHT22;7603;49.432;11.418;2023-08-06T06:28:46;15.00;99.90
15013;DHT22;7603;49.432;11.418;2023-08-06T06:31:15;15.20;99.90
15013;DHT22;7603;49.432;11.418;2023-08-06T06:33:40;15.30;99.90
15013;DHT22;7603;49.432;11.418;2023-08-06T06:36:06;15.40;99.90
15013;DHT22;7603;49.432;11.418;2023-08-06T06:38:35;15.50;99.90
15013;DHT22;7603;49.432;11.418;2023-08-06T06:41:01;15.60;99.90
15013;DHT22;7603;49.432;11.418;2023-08-06T06:43:28;15.50;99.90
15013;DHT22;7603;49.432;11.418;2023-08-06T06:45:58;15.50;99.90
15013;DHT22;7603;49.432;11.418;2023-08-06T06:48:28;15.80;99.90
15013;DHT22;7603;49.432;11.418;2023-08-06T06:50:55;16.10;99.90
15013;DHT22;7603;49.432;11.418;2023-08-06T06:53:20;16.30;99.90
15013;DHT22;7603;49.432;11.418;2023-08-06T06:55:55;16.60;99.90
15013;DHT22;7603;49.432;11.418;2023-08-06T06:58:21;16.70;99.90
15013;DHT22;7603;49.432;11.418;2023-08-06T07:00:48;16.80;99.90
15013;DHT22;7603;49.432;11.418;2023-08-06T07:03:15;16.70;99.90
15013;DHT22;7603;49.432;11.418;2023-08-06T07:05:41;16.60;99.90
15013;DHT22;7603;49.432;11.418;2023-08-06T07:08:07;16.50;99.90
15013;DHT22;7603;49.432;11.418;2023-08-06T07:10:32;16.40;99.90
15013;DHT22;7603;49.432;11.418;2023-08-06T07:12:58;16.20;99.90
15013;DHT22;7603;49.432;11.418;2023-08-06T07:15:24;16.10;99.90
15013;DHT22;7603;49.432;11.418;2023-08-06T07:17:49;16.20;99.90
15013;DHT22;7603;49.432;11.418;2023-08-06T07:20:15;16.10;99.90
15013;DHT22;7603;49.432;11.418;2023-08-06T07:22:40;16.20;99.90
15013;DHT22;7603;49.432;11.418;2023-08-06T07:25:06;16.10;99.90
15013;DHT22;7603;49.432;11.418;2023-08-06T07:27:32;15.80;99.90
15013;DHT22;7603;49.432;11.418;2023-08-06T07:29:58;15.50;99.90
15013;DHT22;7603;49.432;11.418;2023-08-06T07:32:24;15.30;99.90
15013;DHT22;7603;49.432;11.418;2023-08-06T07:34:49;15.10;99.90
15013;DHT22;7603;49.432;11.418;2023-08-06T07:37:15;14.90;99.90
15013;DHT22;7603;49.432;11.418;2023-08-06T07:39:40;14.90;99.90
15013;DHT22;7603;49.432;11.418;2023-08-06T07:42:08;15.10;99.90
15013;DHT22;7603;49.432;11.418;2023-08-06T07:44:34;15.10;99.90
15013;DHT22;7603;49.432;11.418;2023-08-06T07:47:02;15.30;99.90
15013;DHT22;7603;49.432;11.418;2023-08-06T07:49:28;15.40;99.90
15013;DHT22;7603;49.432;11.418;2023-08-06T07:51:56;15.40;99.90
15013;DHT22;7603;49.432;11.418;2023-08-06T07:54:28;15.50;99.90
15013;DHT22;7603;49.432;11.418;2023-08-06T07:56:54;15.60;99.90
15013;DHT22;7603;49.432;11.418;2023-08-06T07:59:20;15.60;99.90
15013;DHT22;7603;49.432;11.418;2023-08-06T08:01:48;15.80;99.90
15013;DHT22;7603;49.432;11.418;2023-08-06T08:04:14;16.10;99.90
15013;DHT22;7603;49.432;11.418;2023-08-06T08:06:39;16.10;99.90
15013;DHT22;7603;49.432;11.418;2023-08-06T08:09:05;16.10;99.90
15013;DHT22;7603;49.432;11.418;2023-08-06T08:11:30;16.10;99.90
15013;DHT22;7603;49.432;11.418;2023-08-06T08:13:56;16.20;99.90
15013;DHT22;7603;49.432;11.418;2023-08-06T08:16:21;16.30;99.90
15013;DHT22;7603;49.432;11.418;2023-08-06T08:18:50;16.20;99.90
15013;DHT22;7603;49.432;11.418;2023-08-06T08:21:16;16.20;99.90
15013;DHT22;7603;49.432;11.418;2023-08-06T08:23:41;16.30;99.90
15013;DHT22;7603;49.432;11.418;2023-08-06T08:26:09;16.60;99.90
15013;DHT22;7603;49.432;11.418;2023-08-06T08:28:34;16.60;99.90
15013;DHT22;7603;49.432;11.418;2023-08-06T08:31:00;16.70;99.90
15013;DHT22;7603;49.432;11.418;2023-08-06T08:33:26;16.90;99.90
15013;DHT22;7603;49.432;11.418;2023-08-06T08:35:52;17.30;99.90
15013;DHT22;7603;49.432;11.418;2023-08-06T08:38:17;17.50;99.90
15013;DHT22;7603;49.432;11.418;2023-08-06T08:40:46;17.60;99.90
15013;DHT22;7603;49.432;11.418;2023-08-06T08:43:15;17.90;99.90
15013;DHT22;7603;49.432;11.418;2023-08-06T08:45:42;18.00;99.90
15013;DHT22;7603;49.432;11.418;2023-08-06T08:48:12;18.10;99.90
15013;DHT22;7603;49.432;11.418;2023-08-06T08:50:40;18.00;99.90
15013;DHT22;7603;49.432;11.418;2023-08-06T08:53:06;18.10;99.90
15013;DHT22;7603;49.432;11.418;2023-08-06T08:55:33;18.50;99.90
15013;DHT22;7603;49.432;11.418;2023-08-06T08:57:59;18.70;99.90
15013;DHT22;7603;49.432;11.418;2023-08-06T09:00:25;19.10;99.90
15013;DHT22;7603;49.432;11.418;2023-08-06T09:02:51;19.50;99.90
15013;DHT22;7603;49.432;11.418;2023-08-06T09:05:18;19.80;99.90
15013;DHT22;7603;49.432;11.418;2023-08-06T09:07:48;19.40;99.90
15013;DHT22;7603;49.432;11.418;2023-08-06T09:10:16;18.20;99.90
15013;DHT22;7603;49.432;11.418;2023-08-06T09:12:43;17.10;99.90
15013;DHT22;7603;49.432;11.418;2023-08-06T09:15:10;16.50;99.90
15013;DHT22;7603;49.432;11.418;2023-08-06T09:17:36;16.30;99.90
15013;DHT22;7603;49.432;11.418;2023-08-06T09:20:12;16.50;99.90
15013;DHT22;7603;49.432;11.418;2023-08-06T09:22:38;16.70;99.90
15013;DHT22;7603;49.432;11.418;2023-08-06T09:25:06;16.60;99.90
15013;DHT22;7603;49.432;11.418;2023-08-06T09:27:35;16.50;99.90
15013;DHT22;7603;49.432;11.418;2023-08-06T09:30:02;16.60;99.90
15013;DHT22;7603;49.432;11.418;2023-08-06T09:32:47;16.70;99.90
15013;DHT22;7603;49.432;11.418;2023-08-06T09:35:17;16.80;99.90
15013;DHT22;7603;49.432;11.418;2023-08-06T09:37:43;16.90;99.90
15013;DHT22;7603;49.432;11.418;2023-08-06T09:40:42;17.00;99.90
15013;DHT22;7603;49.432;11.418;2023-08-06T09:43:12;17.20;99.90
15013;DHT22;7603;49.432;11.418;2023-08-06T09:45:38;17.10;99.90
15013;DHT22;7603;49.432;11.418;2023-08-06T09:48:17;17.10;99.90
15013;DHT22;7603;49.432;11.418;2023-08-06T09:50:46;17.60;99.90
15013;DHT22;7603;49.432;11.418;2023-08-06T09:53:13;18.40;99.90
15013;DHT22;7603;49.432;11.418;2023-08-06T09:55:39;19.00;99.90
15013;DHT22;7603;49.432;11.418;2023-08-06T09:58:06;19.10;99.90
15013;DHT22;7603;49.432;11.418;2023-08-06T10:00:33;19.00;99.90
15013;DHT22;7603;49.432;11.418;2023-08-06T10:03:00;18.90;99.90
15013;DHT22;7603;49.432;11.418;2023-08-06T10:05:26;18.80;99.90
15013;DHT22;7603;49.432;11.418;2023-08-06T10:07:52;18.80;99.90
15013;DHT22;7603;49.432;11.418;2023-08-06T10:10:18;18.80;99.90
15013;DHT22;7603;49.432;11.418;2023-08-06T10:12:50;19.00;99.90
15013;DHT22;7603;49.432;11.418;2023-08-06T10:15:24;19.40;99.90
15013;DHT22;7603;49.432;11.418;2023-08-06T10:17:53;19.30;99.90
15013;DHT22;7603;49.432;11.418;2023-08-06T10:20:20;18.80;99.90
15013;DHT22;7603;49.432;11.418;2023-08-06T10:23:03;18.50;99.90
15013;DHT22;7603;49.432;11.418;2023-08-06T10:25:32;18.40;99.90
15013;DHT22;7603;49.432;11.418;2023-08-06T10:27:59;18.20;99.90
15013;DHT22;7603;49.432;11.418;2023-08-06T10:33:01;17.90;99.90
15013;DHT22;7603;49.432;11.418;2023-08-06T10:35:50;17.60;99.90
15013;DHT22;7603;49.432;11.418;2023-08-06T10:38:19;17.40;99.90
15013;DHT22;7603;49.432;11.418;2023-08-06T10:43:32;17.00;99.90
15013;DHT22;7603;49.432;11.418;2023-08-06T10:46:00;17.00;99.90
15013;DHT22;7603;49.432;11.418;2023-08-06T10:48:37;17.00;99.90
15013;DHT22;7603;49.432;11.418;2023-08-06T10:51:08;18.10;99.90
15013;DHT22;7603;49.432;11.418;2023-08-06T10:53:33;19.20;99.90
15013;DHT22;7603;49.432;11.418;2023-08-06T10:55:59;19.10;99.90
15013;DHT22;7603;49.432;11.418;2023-08-06T10:58:25;18.90;99.90
15013;DHT22;7603;49.432;11.418;2023-08-06T11:00:51;18.60;99.90
15013;DHT22;7603;49.432;11.418;2023-08-06T11:03:17;18.10;99.90
15013;DHT22;7603;49.432;11.418;2023-08-06T11:05:49;17.60;99.90
15013;DHT22;7603;49.432;11.418;2023-08-06T11:08:29;17.30;99.90
15013;DHT22;7603;49.432;11.418;2023-08-06T11:10:55;17.00;99.90
15013;DHT22;7603;49.432;11.418;2023-08-06T11:13:21;16.70;99.90
15013;DHT22;7603;49.432;11.418;2023-08-06T11:15:47;16.50;99.90
15013;DHT22;7603;49.432;11.418;2023-08-06T11:18:12;16.40;99.90
15013;DHT22;7603;49.432;11.418;2023-08-06T11:20:39;15.90;99.90
15013;DHT22;7603;49.432;11.418;2023-08-06T11:23:05;15.50;99.90
15013;DHT22;7603;49.432;11.418;2023-08-06T11:25:31;15.40;99.90
15013;DHT22;7603;49.432;11.418;2023-08-06T11:27:56;15.50;99.90
15013;DHT22;7603;49.432;11.418;2023-08-06T11:30:22;16.10;99.90
15013;DHT22;7603;49.432;11.418;2023-08-06T11:32:48;17.30;99.90
15013;DHT22;7603;49.432;11.418;2023-08-06T11:35:15;18.30;99.90
15013;DHT22;7603;49.432;11.418;2023-08-06T11:37:44;18.50;99.90
15013;DHT22;7603;49.432;11.418;2023-08-06T11:40:11;18.30;99.90
15013;DHT22;7603;49.432;11.418;2023-08-06T11:42:37;18.10;99.90
15013;DHT22;7603;49.432;11.418;2023-08-06T11:45:04;18.10;99.90
15013;DHT22;7603;49.432;11.418;2023-08-06T11:47:30;18.70;99.90
15013;DHT22;7603;49.432;11.418;2023-08-06T11:49:55;20.00;99.90
15013;DHT22;7603;49.432;11.418;2023-08-06T11:52:25;21.50;99.90
15013;DHT22;7603;49.432;11.418;2023-08-06T11:55:04;22.50;99.90
15013;DHT22;7603;49.432;11.418;2023-08-06T11:57:32;23.00;99.90
15013;DHT22;7603;49.432;11.418;2023-08-06T12:00:09;22.70;99.90
15013;DHT22;7603;49.432;11.418;2023-08-06T12:02:35;22.20;99.90
15013;DHT22;7603;49.432;11.418;2023-08-06T12:07:50;21.30;99.90
15013;DHT22;7603;49.432;11.418;2023-08-06T12:10:18;20.80;99.90
15013;DHT22;7603;49.432;11.418;2023-08-06T12:12:45;20.30;99.90
15013;DHT22;7603;49.432;11.418;2023-08-06T12:15:11;19.60;99.90
15013;DHT22;7603;49.432;11.418;2023-08-06T12:17:37;18.90;99.90
15013;DHT22;7603;49.432;11.418;2023-08-06T12:20:04;18.20;99.90
15013;DHT22;7603;49.432;11.418;2023-08-06T12:22:30;18.00;99.90
15013;DHT22;7603;49.432;11.418;2023-08-06T12:25:05;18.40;99.90
15013;DHT22;7603;49.432;11.418;2023-08-06T12:27:37;19.70;99.90
15013;DHT22;7603;49.432;11.418;2023-08-06T12:30:04;22.00;99.90
15013;DHT22;7603;49.432;11.418;2023-08-06T12:32:30;24.50;99.90
15013;DHT22;7603;49.432;11.418;2023-08-06T12:34:55;25.90;99.90
15013;DHT22;7603;49.432;11.418;2023-08-06T12:37:21;25.60;97.30
15013;DHT22;7603;49.432;11.418;2023-08-06T12:39:47;24.60;95.70
15013;DHT22;7603;49.432;11.418;2023-08-06T12:42:13;23.80;97.10
15013;DHT22;7603;49.432;11.418;2023-08-06T12:44:38;22.80;98.60
15013;DHT22;7603;49.432;11.418;2023-08-06T12:47:04;21.00;99.90
15013;DHT22;7603;49.432;11.418;2023-08-06T12:49:30;18.90;99.90
15013;DHT22;7603;49.432;11.418;2023-08-06T12:51:57;17.50;99.90
15013;DHT22;7603;49.432;11.418;2023-08-06T12:54:23;17.30;99.90
15013;DHT22;7603;49.432;11.418;2023-08-06T12:56:49;17.10;99.90
15013;DHT22;7603;49.432;11.418;2023-08-06T12:59:16;17.50;99.90
15013;DHT22;7603;49.432;11.418;2023-08-06T13:01:42;18.20;99.90
15013;DHT22;7603;49.432;11.418;2023-08-06T13:04:08;19.20;99.90
15013;DHT22;7603;49.432;11.418;2023-08-06T13:06:35;20.40;99.90
15013;DHT22;7603;49.432;11.418;2023-08-06T13:09:06;20.70;99.90
15013;DHT22;7603;49.432;11.418;2023-08-06T13:11:32;20.80;99.90
15013;DHT22;7603;49.432;11.418;2023-08-06T13:14:08;20.30;99.90
15013;DHT22;7603;49.432;11.418;2023-08-06T13:16:35;19.60;99.90
15013;DHT22;7603;49.432;11.418;2023-08-06T13:19:01;19.30;99.90
15013;DHT22;7603;49.432;11.418;2023-08-06T13:21:34;19.10;99.90
15013;DHT22;7603;49.432;11.418;2023-08-06T13:24:01;18.90;99.90
15013;DHT22;7603;49.432;11.418;2023-08-06T13:26:31;18.70;99.90
15013;DHT22;7603;49.432;11.418;2023-08-06T13:28:57;18.60;99.90
15013;DHT22;7603;49.432;11.418;2023-08-06T13:31:24;18.60;99.90
15013;DHT22;7603;49.432;11.418;2023-08-06T13:33:49;18.70;99.90
15013;DHT22;7603;49.432;11.418;2023-08-06T13:36:16;18.60;99.90
15013;DHT22;7603;49.432;11.418;2023-08-06T13:38:42;18.50;99.90
15013;DHT22;7603;49.432;11.418;2023-08-06T13:41:07;18.60;99.90
15013;DHT22;7603;49.432;11.418;2023-08-06T13:43:33;18.90;99.90
15013;DHT22;7603;49.432;11.418;2023-08-06T13:45:59;18.80;99.90
15013;DHT22;7603;49.432;11.418;2023-08-06T13:48:24;18.90;99.90
15013;DHT22;7603;49.432;11.418;2023-08-06T13:50:50;19.00;99.90
15013;DHT22;7603;49.432;11.418;2023-08-06T13:53:16;19.00;99.90
15013;DHT22;7603;49.432;11.418;2023-08-06T13:55:42;19.10;99.90
15013;DHT22;7603;49.432;11.418;2023-08-06T13:58:08;18.90;99.90
15013;DHT22;7603;49.432;11.418;2023-08-06T14:00:36;18.70;99.90
15013;DHT22;7603;49.432;11.418;2023-08-06T14:03:02;18.50;99.90
15013;DHT22;7603;49.432;11.418;2023-08-06T14:05:27;18.10;99.90
15013;DHT22;7603;49.432;11.418;2023-08-06T14:07:53;17.70;99.90
15013;DHT22;7603;49.432;11.418;2023-08-06T14:10:19;17.30;99.90
15013;DHT22;7603;49.432;11.418;2023-08-06T14:12:44;16.80;99.90
15013;DHT22;7603;49.432;11.418;2023-08-06T14:15:10;16.40;99.90
15013;DHT22;7603;49.432;11.418;2023-08-06T14:17:36;15.80;99.90
15013;DHT22;7603;49.432;11.418;2023-08-06T14:20:03;15.40;99.90
15013;DHT22;7603;49.432;11.418;2023-08-06T14:22:30;15.20;99.90
15013;DHT22;7603;49.432;11.418;2023-08-06T14:24:57;15.00;99.90
15013;DHT22;7603;49.432;11.418;2023-08-06T14:27:24;14.70;99.90
15013;DHT22;7603;49.432;11.418;2023-08-06T14:29:50;14.50;99.90
15013;DHT22;7603;49.432;11.418;2023-08-06T14:32:15;14.50;99.90
15013;DHT22;7603;49.432;11.418;2023-08-06T14:34:43;14.30;99.90
15013;DHT22;7603;49.432;11.418;2023-08-06T14:37:10;14.20;99.90
15013;DHT22;7603;49.432;11.418;2023-08-06T14:39:35;14.20;99.90
15013;DHT22;7603;49.432;11.418;2023-08-06T14:42:01;14.20;99.90
15013;DHT22;7603;49.432;11.418;2023-08-06T14:44:27;14.10;99.90
15013;DHT22;7603;49.432;11.418;2023-08-06T14:46:53;14.00;99.90
15013;DHT22;7603;49.432;11.418;2023-08-06T14:49:18;13.90;99.90
15013;DHT22;7603;49.432;11.418;2023-08-06T14:51:45;13.80;99.90
15013;DHT22;7603;49.432;11.418;2023-08-06T14:54:10;13.70;99.90
15013;DHT22;7603;49.432;11.418;2023-08-06T14:56:36;13.70;99.90
15013;DHT22;7603;49.432;11.418;2023-08-06T14:59:02;13.60;99.90
15013;DHT22;7603;49.432;11.418;2023-08-06T15:01:28;13.50;99.90
15013;DHT22;7603;49.432;11.418;2023-08-06T15:03:53;13.40;99.90
15013;DHT22;7603;49.432;11.418;2023-08-06T15:06:19;13.30;99.90
15013;DHT22;7603;49.432;11.418;2023-08-06T15:08:44;13.30;99.90
15013;DHT22;7603;49.432;11.418;2023-08-06T15:11:13;13.20;99.90
15013;DHT22;7603;49.432;11.418;2023-08-06T15:13:39;13.20;99.90
15013;DHT22;7603;49.432;11.418;2023-08-06T15:16:04;13.20;99.90
15013;DHT22;7603;49.432;11.418;2023-08-06T15:18:30;13.20;99.90
15013;DHT22;7603;49.432;11.418;2023-08-06T15:20:56;13.10;99.90
15013;DHT22;7603;49.432;11.418;2023-08-06T15:23:23;13.10;99.90
15013;DHT22;7603;49.432;11.418;2023-08-06T15:25:48;13.10;99.90
15013;DHT22;7603;49.432;11.418;2023-08-06T15:28:14;13.10;99.90
15013;DHT22;7603;49.432;11.418;2023-08-06T15:30:40;13.10;99.90
15013;DHT22;7603;49.432;11.418;2023-08-06T15:33:07;13.10;99.90
15013;DHT22;7603;49.432;11.418;2023-08-06T15:35:33;13.20;99.90
15013;DHT22;7603;49.432;11.418;2023-08-06T15:37:58;13.20;99.90
15013;DHT22;7603;49.432;11.418;2023-08-06T15:40:24;13.20;99.90